createdAt,value
2022-10-06T00:04:52.414Z,100.00
2022-10-06T00:09:57.397Z,100.00
2022-10-06T00:15:02.334Z,100.00
2022-10-06T00:20:13.312Z,100.00
2022-10-06T00:25:21.128Z,100.00
2022-10-06T00:30:27.870Z,100.00
2022-10-06T00:35:36.924Z,100.00
2022-10-06T00:40:47.108Z,100.00
2022-10-06T00:45:52.222Z,100.00
2022-10-06T00:51:01.876Z,100.00
2022-10-06T00:56:06.707Z,100.00
2022-10-06T01:01:14.369Z,100.00
2022-10-06T01:06:22.259Z,100.00
2022-10-06T01:11:27.293Z,100.00
2022-10-06T01:16:34.582Z,100.00
2022-10-06T01:21:47.495Z,100.00
2022-10-06T01:26:56.919Z,100.00
2022-10-06T01:32:02.506Z,100.00
2022-10-06T01:37:07.626Z,100.00
2022-10-06T01:42:16.197Z,100.00
2022-10-06T01:47:21.140Z,100.00
2022-10-06T01:52:26.337Z,100.00
2022-10-06T01:57:33.738Z,100.00
2022-10-06T02:02:40.227Z,100.00
2022-10-06T02:07:45.017Z,100.00
2022-10-06T02:12:58.302Z,100.00
2022-10-06T02:18:05.288Z,100.00
2022-10-06T02:23:10.201Z,100.00
2022-10-06T02:28:17.623Z,100.00
2022-10-06T02:33:22.648Z,100.00
2022-10-06T02:38:28.190Z,100.00
2022-10-06T02:43:37.178Z,100.00
2022-10-06T02:48:43.388Z,100.00
2022-10-06T02:53:50.463Z,100.00
2022-10-06T02:58:58.447Z,100.00
2022-10-06T03:04:11.766Z,100.00
2022-10-06T03:09:18.904Z,100.00
2022-10-06T03:14:26.369Z,100.00
2022-10-06T03:19:31.427Z,100.00
2022-10-06T03:24:37.317Z,100.00
2022-10-06T03:29:46.132Z,100.00
2022-10-06T03:34:53.403Z,100.00
2022-10-06T03:39:58.723Z,100.00
2022-10-06T03:45:06.763Z,100.00
2022-10-06T03:50:12.766Z,100.00
2022-10-06T03:55:17.692Z,100.00
2022-10-06T04:00:25.406Z,100.00
2022-10-06T04:05:30.389Z,100.00
2022-10-06T04:10:36.478Z,100.00
2022-10-06T04:15:44.085Z,100.00
2022-10-06T04:20:49.363Z,100.00
2022-10-06T04:26:00.796Z,100.00
2022-10-06T04:31:10.464Z,100.00
2022-10-06T04:36:17.752Z,100.00
2022-10-06T04:41:23.236Z,100.00
2022-10-06T04:46:42.633Z,100.00
2022-10-06T04:51:49.851Z,100.00
2022-10-06T04:56:56.814Z,100.00
2022-10-06T05:02:07.078Z,100.00
2022-10-06T05:07:12.148Z,100.00
2022-10-06T05:12:17.130Z,100.00
2022-10-06T05:17:27.223Z,100.00
2022-10-06T05:22:32.694Z,100.00
2022-10-06T05:27:37.804Z,100.00
2022-10-06T05:32:50.573Z,100.00
2022-10-06T05:37:57.512Z,100.00
2022-10-06T05:43:03.125Z,100.00
2022-10-06T05:48:11.836Z,100.00
2022-10-06T05:53:17.109Z,100.00
2022-10-06T05:58:21.993Z,100.00
2022-10-06T06:03:29.607Z,100.00
2022-10-06T06:08:34.823Z,100.00
2022-10-06T06:13:39.967Z,100.00
2022-10-06T06:18:53.227Z,100.00
2022-10-06T06:24:01.012Z,100.00
2022-10-06T06:29:07.542Z,100.00
2022-10-06T06:34:20.871Z,100.00
2022-10-06T06:39:29.326Z,100.00
2022-10-06T06:44:40.935Z,100.00
2022-10-06T06:50:03.084Z,100.00
2022-10-06T06:55:09.480Z,100.00
2022-10-06T07:00:16.857Z,100.00
2022-10-06T07:05:26.073Z,100.00
2022-10-06T07:10:35.523Z,100.00
2022-10-06T07:15:53.575Z,100.00
2022-10-06T07:21:14.958Z,100.00
2022-10-06T07:26:20.051Z,100.00
2022-10-06T07:31:27.441Z,100.00
2022-10-06T07:36:37.810Z,100.00
2022-10-06T07:41:43.938Z,100.00
2022-10-06T07:46:55.064Z,100.00
2022-10-06T07:52:16.599Z,100.00
2022-10-06T07:57:25.024Z,100.00
2022-10-06T08:02:33.138Z,100.00
2022-10-06T08:07:44.317Z,100.00
2022-10-06T08:12:50.402Z,100.00
2022-10-06T08:17:57.717Z,100.00
2022-10-06T08:23:15.968Z,100.00
2022-10-06T08:28:22.477Z,100.00
2022-10-06T08:33:30.154Z,100.00
2022-10-06T08:38:38.904Z,100.00
2022-10-06T08:43:45.057Z,100.00
2022-10-06T08:48:49.972Z,100.00
2022-10-06T08:54:05.507Z,100.00
2022-10-06T08:59:12.193Z,100.00
2022-10-06T09:04:26.556Z,100.00
2022-10-06T09:10:00.064Z,100.00
2022-10-06T09:15:19.372Z,100.00
2022-10-06T09:20:32.068Z,100.00
2022-10-06T09:25:41.195Z,100.00
2022-10-06T09:30:47.030Z,100.00
2022-10-06T09:36:10.613Z,100.00
2022-10-06T09:41:19.279Z,100.00
2022-10-06T09:46:31.496Z,100.00
2022-10-06T09:51:38.183Z,100.00
2022-10-06T09:56:47.858Z,99.03
2022-10-06T10:01:59.923Z,99.30
2022-10-06T10:07:19.256Z,95.58
2022-10-06T10:12:34.379Z,98.45
2022-10-06T10:17:50.882Z,97.82
2022-10-06T10:23:00.001Z,93.52
2022-10-06T10:28:19.219Z,91.24
2022-10-06T10:33:33.523Z,88.41
2022-10-06T10:38:43.030Z,87.86
2022-10-06T10:43:59.618Z,87.34
2022-10-06T10:49:15.549Z,86.05
2022-10-06T10:54:25.217Z,83.55
2022-10-06T10:59:38.329Z,78.70
2022-10-06T11:04:49.664Z,81.17
2022-10-06T11:10:01.478Z,84.14
2022-10-06T11:15:18.601Z,78.73
2022-10-06T11:20:41.804Z,74.75
2022-10-06T11:25:56.779Z,74.79
2022-10-06T11:31:16.565Z,73.40
2022-10-06T11:36:34.754Z,77.80
2022-10-06T11:41:45.524Z,73.63
2022-10-06T11:46:59.828Z,72.43
2022-10-06T11:52:47.349Z,69.92
2022-10-06T11:58:42.400Z,68.60
2022-10-06T12:04:06.446Z,71.26
2022-10-06T12:09:31.301Z,69.80
2022-10-06T12:20:21.766Z,72.07
2022-10-06T12:25:34.375Z,73.43
2022-10-06T12:31:00.266Z,73.65
2022-10-06T12:36:18.777Z,71.26
2022-10-06T12:41:53.820Z,70.88
2022-10-06T12:47:04.190Z,67.16
2022-10-06T12:52:40.274Z,67.77
2022-10-06T12:57:49.642Z,70.52
2022-10-06T13:02:58.560Z,72.56
2022-10-06T13:08:08.105Z,72.65
2022-10-06T13:13:25.481Z,69.63
2022-10-06T13:18:32.612Z,68.20
2022-10-06T13:23:43.899Z,68.10
2022-10-06T13:28:52.083Z,66.83
2022-10-06T13:34:01.186Z,67.28
2022-10-06T13:39:09.621Z,66.05
2022-10-06T13:44:32.732Z,67.06
2022-10-06T13:49:43.767Z,66.22
2022-10-06T13:54:56.009Z,65.51
2022-10-06T14:00:18.260Z,67.62
2022-10-06T14:05:30.503Z,68.09
2022-10-06T14:10:49.575Z,68.38
2022-10-06T14:15:57.462Z,69.18
2022-10-06T14:21:18.788Z,69.16
2022-10-06T14:26:27.719Z,66.44
2022-10-06T14:31:34.406Z,66.71
2022-10-06T14:36:40.156Z,66.69
2022-10-06T14:41:48.382Z,66.19
2022-10-06T14:46:54.101Z,65.91
2022-10-06T14:51:59.189Z,65.36
2022-10-06T14:57:07.236Z,66.80
2022-10-06T15:02:14.452Z,66.93
2022-10-06T15:07:31.656Z,68.01
2022-10-06T15:12:39.078Z,67.19
2022-10-06T15:17:43.897Z,67.44
2022-10-06T15:22:49.128Z,68.70
2022-10-06T15:28:09.273Z,69.54
2022-10-06T15:33:14.275Z,70.45
2022-10-06T15:38:19.557Z,70.46
2022-10-06T15:43:46.997Z,71.92
2022-10-06T15:48:52.439Z,71.68
2022-10-06T15:53:58.450Z,70.68
2022-10-06T15:59:06.030Z,71.29
2022-10-06T16:04:24.201Z,72.64
2022-10-06T16:09:30.745Z,72.66
2022-10-06T16:14:38.842Z,73.56
2022-10-06T16:19:44.422Z,74.81
2022-10-06T16:24:49.235Z,79.46
2022-10-06T16:29:57.153Z,80.99
2022-10-06T16:35:02.225Z,80.98
2022-10-06T16:40:07.985Z,83.55
2022-10-06T16:45:16.152Z,84.03
2022-10-06T16:50:21.101Z,85.65
2022-10-06T16:55:26.148Z,89.41
2022-10-06T17:00:33.708Z,92.70
2022-10-06T17:05:39.662Z,93.89
2022-10-06T17:10:44.710Z,95.73
2022-10-06T17:16:00.241Z,97.45
2022-10-06T17:21:32.144Z,97.49
2022-10-06T17:26:37.851Z,98.70
2022-10-06T17:31:46.384Z,99.69
2022-10-06T17:36:53.474Z,100.00
2022-10-06T17:41:58.448Z,100.00
2022-10-06T17:47:05.821Z,100.00
2022-10-06T17:52:10.976Z,100.00
2022-10-06T17:57:16.378Z,100.00
2022-10-06T18:02:23.973Z,100.00
2022-10-06T18:07:28.738Z,100.00
2022-10-06T18:12:36.259Z,100.00
2022-10-06T18:17:44.287Z,100.00
2022-10-06T18:22:49.287Z,100.00
2022-10-06T18:27:54.269Z,100.00
2022-10-06T18:38:27.960Z,100.00
2022-10-06T18:43:33.333Z,100.00
2022-10-06T18:48:58.935Z,100.00
2022-10-06T18:54:07.179Z,100.00
2022-10-06T18:59:14.650Z,100.00
2022-10-06T19:04:23.895Z,100.00
2022-10-06T19:09:28.688Z,100.00
2022-10-06T19:14:36.778Z,100.00
2022-10-06T19:19:48.217Z,100.00
2022-10-06T19:24:54.042Z,100.00
2022-10-06T19:29:59.248Z,100.00
2022-10-06T19:35:10.291Z,100.00
2022-10-06T19:40:15.970Z,100.00
2022-10-06T19:45:21.353Z,100.00
2022-10-06T19:50:30.510Z,100.00
2022-10-06T19:55:35.621Z,100.00
2022-10-06T20:00:41.456Z,100.00
2022-10-06T20:05:49.032Z,100.00
2022-10-06T20:10:54.045Z,100.00
2022-10-06T20:15:58.996Z,100.00
2022-10-06T20:21:06.942Z,100.00
2022-10-06T20:26:15.709Z,100.00
2022-10-06T20:31:23.157Z,100.00
2022-10-06T20:36:32.359Z,100.00
2022-10-06T20:41:40.666Z,100.00
2022-10-06T20:46:45.453Z,100.00
2022-10-06T20:51:53.186Z,100.00
2022-10-06T20:56:58.709Z,100.00
2022-10-06T21:02:03.580Z,100.00
2022-10-06T21:07:11.297Z,100.00
2022-10-06T21:12:16.592Z,100.00
2022-10-06T21:17:22.065Z,100.00
2022-10-06T21:22:31.306Z,100.00
2022-10-06T21:27:36.312Z,100.00
2022-10-06T21:32:42.586Z,100.00
2022-10-06T21:37:50.347Z,100.00
2022-10-06T21:42:55.221Z,100.00
2022-10-06T21:48:00.285Z,100.00
2022-10-06T21:53:07.756Z,100.00
2022-10-06T21:58:12.758Z,100.00
2022-10-06T22:03:17.649Z,100.00
2022-10-06T22:08:25.398Z,100.00
2022-10-06T22:13:31.398Z,100.00
2022-10-06T22:18:36.661Z,100.00
2022-10-06T22:23:45.296Z,100.00
2022-10-06T22:28:51.599Z,100.00
2022-10-06T22:33:58.582Z,100.00
2022-10-06T22:39:06.601Z,100.00
2022-10-06T22:44:11.633Z,100.00
2022-10-06T22:49:16.410Z,100.00
2022-10-06T22:54:27.771Z,100.00
2022-10-06T22:59:32.960Z,100.00
2022-10-06T23:04:37.905Z,100.00
2022-10-06T23:09:45.479Z,100.00
2022-10-06T23:14:50.696Z,100.00
2022-10-06T23:19:55.653Z,100.00
2022-10-06T23:25:03.382Z,100.00
2022-10-06T23:30:10.316Z,100.00
2022-10-06T23:35:15.695Z,100.00
2022-10-06T23:40:23.309Z,100.00
2022-10-06T23:45:28.514Z,100.00
2022-10-06T23:50:33.441Z,100.00
2022-10-06T23:55:41.395Z,100.00
